createdAt,value
2023-03-17T00:01:53.115Z,5.49
2023-03-17T00:11:53.381Z,5.35
2023-03-17T00:21:53.470Z,4.44
2023-03-17T00:31:53.861Z,4.36
2023-03-17T00:41:53.824Z,4.15
2023-03-17T00:51:54.113Z,4.39
2023-03-17T01:01:54.271Z,4.52
2023-03-17T01:11:54.834Z,4.50
2023-03-17T01:21:54.463Z,4.76
2023-03-17T01:31:54.974Z,4.67
2023-03-17T01:41:54.828Z,5.16
2023-03-17T01:51:55.087Z,4.94
2023-03-17T02:01:55.162Z,4.95
2023-03-17T02:11:55.423Z,4.92
2023-03-17T02:21:55.640Z,4.64
2023-03-17T02:31:55.783Z,4.54
2023-03-17T02:41:55.868Z,4.69
2023-03-17T02:51:56.129Z,4.44
2023-03-17T03:01:56.331Z,4.15
2023-03-17T03:11:56.790Z,4.19
2023-03-17T03:21:56.775Z,4.19
2023-03-17T03:31:57.036Z,4.15
2023-03-17T03:41:57.122Z,4.18
2023-03-17T03:51:57.367Z,4.04
2023-03-17T04:01:57.814Z,3.86
2023-03-17T04:11:57.728Z,3.36
2023-03-17T04:21:57.925Z,3.25
2023-03-17T04:31:58.238Z,2.98
2023-03-17T04:41:58.330Z,3.10
2023-03-17T04:51:58.598Z,3.10
2023-03-17T05:01:58.729Z,2.82
2023-03-17T05:11:58.850Z,2.77
2023-03-17T05:21:59.120Z,2.67
2023-03-17T05:31:59.195Z,2.91
2023-03-17T05:41:59.386Z,2.81
2023-03-17T05:51:59.634Z,2.92
2023-03-17T06:01:59.918Z,3.03
2023-03-17T06:12:00.046Z,3.30
2023-03-17T06:22:00.246Z,3.78
2023-03-17T06:32:17.062Z,3.89
2023-03-17T06:42:01.655Z,3.80
2023-03-17T06:52:00.782Z,3.92
2023-03-17T07:02:01.300Z,4.40
2023-03-17T07:12:01.192Z,4.95
2023-03-17T07:22:01.399Z,6.25
2023-03-17T07:32:01.687Z,7.19
2023-03-17T07:42:02.091Z,7.93
2023-03-17T07:52:02.074Z,8.60
2023-03-17T08:02:02.241Z,9.01
2023-03-17T08:12:02.376Z,9.10
2023-03-17T08:22:02.560Z,9.10
2023-03-17T08:32:02.703Z,9.49
2023-03-17T08:42:02.900Z,9.85
2023-03-17T08:52:03.151Z,10.06
2023-03-17T09:02:03.194Z,10.39
2023-03-17T09:12:03.422Z,11.10
2023-03-17T09:22:03.594Z,12.23
2023-03-17T09:32:03.820Z,13.96
2023-03-17T09:42:04.010Z,14.02
2023-03-17T09:52:04.230Z,14.12
2023-03-17T10:02:04.465Z,14.83
2023-03-17T10:12:04.584Z,15.30
2023-03-17T10:22:04.780Z,15.54
2023-03-17T10:32:05.004Z,15.79
2023-03-17T10:42:05.174Z,16.63
2023-03-17T10:52:05.404Z,17.23
2023-03-17T11:02:05.593Z,18.04
2023-03-17T11:12:05.841Z,18.12
2023-03-17T11:22:05.890Z,18.40
2023-03-17T11:32:06.287Z,18.90
2023-03-17T11:42:07.038Z,19.61
2023-03-17T11:53:21.613Z,20.10
2023-03-17T12:03:42.789Z,20.68
2023-03-17T12:13:21.888Z,20.13
2023-03-17T12:23:23.698Z,20.87
2023-03-17T12:33:22.254Z,20.77
2023-03-17T12:43:22.303Z,23.01
2023-03-17T12:53:22.531Z,22.92
2023-03-17T13:03:22.748Z,22.27
2023-03-17T13:13:22.869Z,21.39
2023-03-17T13:23:23.136Z,21.14
2023-03-17T13:33:23.273Z,21.48
2023-03-17T13:43:23.381Z,21.88
2023-03-17T13:53:23.699Z,21.79
2023-03-17T14:03:23.621Z,21.30
2023-03-17T14:13:23.843Z,21.14
2023-03-17T14:23:24.195Z,21.82
2023-03-17T14:33:24.166Z,22.41
2023-03-17T14:43:24.340Z,21.64
2023-03-17T14:53:26.801Z,22.43
2023-03-17T15:03:54.258Z,23.14
2023-03-17T15:15:55.784Z,22.14
2023-03-17T15:25:56.046Z,21.24
2023-03-17T15:35:56.442Z,20.80
2023-03-17T15:45:56.228Z,20.18
2023-03-17T15:55:56.435Z,19.66
2023-03-17T16:05:56.605Z,19.05
2023-03-17T16:15:56.892Z,18.77
2023-03-17T16:26:04.575Z,18.58
2023-03-17T16:35:58.195Z,18.22
2023-03-17T16:45:57.373Z,17.97
2023-03-17T16:55:57.679Z,17.47
2023-03-17T17:05:57.741Z,17.04
2023-03-17T17:15:58.049Z,16.85
2023-03-17T17:25:58.123Z,16.60
2023-03-17T17:35:58.539Z,16.27
2023-03-17T17:45:58.519Z,16.34
2023-03-17T17:55:58.741Z,16.07
2023-03-17T18:05:58.897Z,16.04
2023-03-17T18:15:59.124Z,16.04
2023-03-17T18:25:59.300Z,16.18
2023-03-17T18:35:59.644Z,16.01
2023-03-17T18:45:59.660Z,16.01
2023-03-17T18:55:59.792Z,16.07
2023-03-17T19:05:59.946Z,15.82
2023-03-17T19:16:00.191Z,15.46
2023-03-17T19:26:00.358Z,15.08
2023-03-17T19:36:00.619Z,14.93
2023-03-17T19:46:00.721Z,14.67
2023-03-17T19:56:00.809Z,14.14
2023-03-17T20:06:01.021Z,13.00
2023-03-17T20:16:01.426Z,12.21
2023-03-17T20:26:01.402Z,12.15
2023-03-17T20:36:01.848Z,12.12
2023-03-17T20:46:01.792Z,11.99
2023-03-17T20:56:02.011Z,12.23
2023-03-17T21:06:02.180Z,13.04
2023-03-17T21:16:02.583Z,13.29
2023-03-17T21:26:02.693Z,13.00
2023-03-17T21:36:02.828Z,13.18
2023-03-17T21:46:03.060Z,13.15
2023-03-17T21:56:03.072Z,13.02
2023-03-17T22:06:03.231Z,12.75
2023-03-17T22:16:03.465Z,12.97
2023-03-17T22:26:03.644Z,12.39
2023-03-17T22:36:03.937Z,12.63
2023-03-17T22:46:04.120Z,12.46
2023-03-17T22:56:04.228Z,11.72
2023-03-17T23:06:04.396Z,10.98
2023-03-17T23:16:04.681Z,10.43
2023-03-17T23:26:04.748Z,11.07
2023-03-17T23:36:05.027Z,11.03
2023-03-17T23:46:05.151Z,10.66
2023-03-17T23:56:05.366Z,9.78
